Time;durP1;ratioP1;P1;durP2;ratioP2;P2;SDS_P1;SDS_P2;PMS_P1;PMS_P2;Temp;Humidity;BMP_temperature;BMP_pressure;BME280_temperature;BME280_humidity;BME280_pressure;Samples;Min_cycle;Max_cycle;Signal;HPM_P1;HPM_P2
2023/07/13 00:03:48;;;;;;;2.80;1.35;;;;;;;19.16;43.75;99773.47;10270931;28;20300;-67
2023/07/13 00:08:50;;;;;;;2.45;1.50;;;;;;;18.64;44.69;99797.84;10285212;28;20230;-67
2023/07/13 00:13:51;;;;;;;1.50;1.40;;;;;;;19.29;44.33;99717.28;10289081;28;20230;-67
2023/07/13 00:18:53;;;;;;;1.90;1.48;;;;;;;18.34;45.26;99785.31;10288191;28;20230;-68
2023/07/13 00:23:55;;;;;;;4.70;1.73;;;;;;;17.85;45.88;99788.19;10291828;28;20246;-67
2023/07/13 00:28:56;;;;;;;3.30;1.30;;;;;;;18.23;45.14;99756.31;10276550;28;20231;-67
2023/07/13 00:33:59;;;;;;;2.22;1.70;;;;;;;18.61;43.99;99763.94;10285492;28;20321;-67
2023/07/13 00:39:03;;;;;;;1.63;1.52;;;;;;;19.72;42.50;99684.13;10282553;28;20714;-68
2023/07/13 00:44:05;;;;;;;5.20;1.48;;;;;;;19.44;42.71;99807.09;10275960;28;20809;-68
2023/07/13 00:49:10;;;;;;;1.60;1.50;;;;;;;21.05;41.53;99741.31;10280066;28;20254;-67
2023/07/13 00:54:17;;;;;;;2.47;1.45;;;;;;;19.61;43.00;99804.44;10280698;28;20276;-68
2023/07/13 00:59:21;;;;;;;1.40;1.30;;;;;;;20.33;42.34;99715.97;10284420;28;20722;-67
2023/07/13 01:04:25;;;;;;;2.53;1.60;;;;;;;20.55;41.24;99740.44;10276743;28;20837;-66
2023/07/13 01:09:27;;;;;;;2.70;1.50;;;;;;;21.26;41.66;99717.88;10281547;28;20223;-68
2023/07/13 01:14:29;;;;;;;2.08;1.73;;;;;;;20.37;43.60;99770.63;10270616;28;20777;-68
2023/07/13 01:19:42;;;;;;;3.63;1.63;;;;;;;20.88;42.91;99725.06;10287244;28;20234;-68
2023/07/13 01:24:46;;;;;;;2.00;1.65;;;;;;;21.05;42.45;99742.16;10275226;28;20249;-68
2023/07/13 01:29:49;;;;;;;5.35;2.00;;;;;;;19.68;43.93;99805.09;10280173;28;20257;-68
2023/07/13 01:34:54;;;;;;;2.95;1.95;;;;;;;18.89;45.81;99758.81;10272151;28;20318;-68
2023/07/13 01:39:56;;;;;;;1.63;1.52;;;;;;;19.61;43.88;99776.47;10283682;28;20227;-68
2023/07/13 01:44:57;;;;;;;3.80;2.15;;;;;;;19.95;44.00;99750.16;10275784;28;20243;-67
2023/07/13 01:49:59;;;;;;;2.95;1.80;;;;;;;17.04;49.09;99776.84;10286444;28;20280;-68
2023/07/13 01:55:02;;;;;;;2.33;1.77;;;;;;;19.55;45.17;99746.53;10284518;28;20234;-68
2023/07/13 02:00:06;;;;;;;2.78;1.88;;;;;;;20.34;43.75;99711.34;10274381;28;20716;-68
2023/07/13 02:05:08;;;;;;;4.00;1.90;;;;;;;19.75;43.44;99794.94;10265494;28;20290;-68
2023/07/13 02:10:11;;;;;;;2.03;1.83;;;;;;;20.63;43.33;99706.53;10267687;28;20870;-67
2023/07/13 02:15:13;;;;;;;1.92;1.50;;;;;;;20.90;42.75;99724.81;10262697;28;20267;-67
2023/07/13 02:20:14;;;;;;;3.20;1.95;;;;;;;18.91;45.81;99765.66;10273045;28;20778;-67
2023/07/13 02:25:16;;;;;;;3.67;1.75;;;;;;;20.24;43.06;99758.22;10279049;28;20358;-68
2023/07/13 02:30:18;;;;;;;4.35;1.95;;;;;;;20.99;42.03;99758.66;10262210;28;20226;-67
2023/07/13 02:35:20;;;;;;;4.30;1.63;;;;;;;20.65;42.65;99750.63;10267444;28;20237;-67
2023/07/13 02:40:22;;;;;;;1.95;1.75;;;;;;;20.59;42.67;99760.59;10267298;28;20283;-68
2023/07/13 02:45:23;;;;;;;4.38;1.90;;;;;;;19.30;45.32;99822.00;10273956;28;20785;-68
2023/07/13 02:50:25;;;;;;;1.77;1.53;;;;;;;20.38;43.83;99742.38;10277927;28;20241;-67
2023/07/13 02:55:27;;;;;;;1.90;1.80;;;;;;;19.74;44.31;99782.41;10279829;28;20643;-67
2023/07/13 03:00:28;;;;;;;2.53;1.90;;;;;;;20.01;43.72;99776.34;10277693;28;20372;-67
2023/07/13 03:05:30;;;;;;;2.03;1.60;;;;;;;18.68;45.66;99823.44;10279494;28;20294;-67
2023/07/13 03:10:32;;;;;;;3.93;2.17;;;;;;;20.37;43.63;99717.09;10268647;28;20717;-66
2023/07/13 03:15:34;;;;;;;7.17;2.10;;;;;;;20.22;43.67;99755.75;10285641;28;20659;-67
2023/07/13 03:20:35;;;;;;;1.98;1.75;;;;;;;20.61;43.30;99731.25;10268638;28;20322;-67
2023/07/13 03:25:37;;;;;;;4.47;1.90;;;;;;;20.57;43.63;99748.34;10277856;28;20337;-67
2023/07/13 03:30:39;;;;;;;2.03;1.83;;;;;;;19.21;45.37;99827.00;10274298;28;20235;-68
2023/07/13 03:35:41;;;;;;;2.97;2.20;;;;;;;19.17;45.43;99829.38;10281731;28;20226;-70
2023/07/13 03:40:43;;;;;;;4.60;2.30;;;;;;;20.49;43.46;99736.81;10273794;28;20798;-67
2023/07/13 03:45:44;;;;;;;3.40;2.07;;;;;;;19.79;44.58;99781.69;10277676;28;20333;-67
2023/07/13 03:50:48;;;;;;;4.10;1.57;;;;;;;19.96;44.70;99768.09;10289755;28;20237;-67
2023/07/13 03:55:49;;;;;;;2.27;1.60;;;;;;;18.98;46.30;99809.75;10283476;28;20341;-70
2023/07/13 04:00:51;;;;;;;2.17;1.90;;;;;;;19.64;44.82;99781.44;10291352;28;20322;-67
2023/07/13 04:05:55;;;;;;;2.03;1.50;;;;;;;20.37;44.15;99736.13;10293523;28;20286;-67
2023/07/13 04:10:57;;;;;;;2.00;1.60;;;;;;;20.48;43.33;99786.84;10289007;28;20776;-67
2023/07/13 04:15:59;;;;;;;2.77;1.90;;;;;;;20.02;44.24;99818.69;10297712;28;20313;-67
2023/07/13 04:21:01;;;;;;;5.07;2.13;;;;;;;19.79;45.21;99811.53;10274509;28;20609;-67
2023/07/13 04:26:03;;;;;;;2.97;1.90;;;;;;;20.11;44.26;99789.25;10280093;28;20904;-67
2023/07/13 04:31:04;;;;;;;2.77;1.67;;;;;;;19.83;44.94;99812.69;10281823;28;20255;-67
2023/07/13 04:36:09;;;;;;;1.97;1.80;;;;;;;19.27;45.25;99841.50;10279420;28;20317;-67
2023/07/13 04:41:14;;;;;;;3.83;2.00;;;;;;;19.63;44.72;99807.72;10282720;28;20258;-67
2023/07/13 04:46:18;;;;;;;5.00;1.97;;;;;;;19.36;44.61;99834.59;10294763;28;20741;-67
2023/07/13 04:51:20;;;;;;;3.03;1.80;;;;;;;19.24;45.55;99831.94;10290513;28;20252;-67
2023/07/13 04:56:22;;;;;;;3.30;1.97;;;;;;;18.91;45.85;99882.22;10272017;28;20239;-67
2023/07/13 05:05:22;;;;;;;3.10;1.90;;;;;;;17.15;49.75;99797.69;10421781;27;20846;-67
2023/07/13 05:10:23;;;;;;;3.10;1.83;;;;;;;17.59;49.07;99765.03;10375401;28;20240;-65
2023/07/13 05:15:26;;;;;;;3.47;1.90;;;;;;;17.35;48.88;99820.94;10387669;28;20228;-66
2023/07/13 05:20:28;;;;;;;3.13;2.20;;;;;;;18.63;47.24;99742.84;10384557;28;20225;-67
2023/07/13 05:25:29;;;;;;;2.60;2.17;;;;;;;18.23;47.58;99799.63;10384657;28;20297;-68
2023/07/13 05:30:31;;;;;;;1.98;1.80;;;;;;;18.38;48.12;99782.94;10384841;28;20252;-68
2023/07/13 05:35:33;;;;;;;2.30;2.10;;;;;;;18.21;47.95;99793.63;10384145;28;20224;-67
2023/07/13 05:40:34;;;;;;;6.40;2.30;;;;;;;18.92;46.69;99802.56;10412306;28;20232;-67
2023/07/13 05:45:36;;;;;;;2.37;2.10;;;;;;;19.04;47.10;99817.97;10398334;28;20305;-68
2023/07/13 05:50:38;;;;;;;3.47;2.13;;;;;;;18.01;49.25;99878.72;10386189;28;20241;-68
2023/07/13 05:55:44;;;;;;;5.23;2.40;;;;;;;17.94;50.10;99871.75;10381863;28;20683;-68
2023/07/13 06:00:47;;;;;;;3.63;2.20;;;;;;;18.56;49.00;99790.94;10382629;28;20268;-67
2023/07/13 06:05:49;;;;;;;3.00;2.10;;;;;;;18.04;49.17;99863.91;10384066;28;20228;-65
2023/07/13 06:10:50;;;;;;;4.87;2.03;;;;;;;18.82;48.08;99802.31;10385628;28;20225;-66
2023/07/13 06:15:52;;;;;;;2.07;1.70;;;;;;;19.15;48.11;99866.75;10358854;28;20241;-66
2023/07/13 06:20:54;;;;;;;6.93;1.90;;;;;;;19.30;47.42;99896.09;10356938;28;20364;-66
2023/07/13 06:25:56;;;;;;;4.28;2.17;;;;;;;20.60;45.54;99865.53;10356795;28;20805;-68
2023/07/13 06:30:59;;;;;;;3.85;2.10;;;;;;;20.74;45.98;99871.44;10353126;28;20855;-66
2023/07/13 06:36:02;;;;;;;2.40;2.20;;;;;;;17.83;49.57;100028.50;10354831;28;20236;-68
2023/07/13 06:41:05;;;;;;;3.13;2.45;;;;;;;18.60;47.76;100011.59;10357614;28;20242;-68
2023/07/13 06:46:07;;;;;;;2.97;2.22;;;;;;;19.74;45.64;99982.50;10331565;28;20222;-65
2023/07/13 06:51:09;;;;;;;2.90;2.10;;;;;;;18.94;47.16;100008.38;10310626;28;20234;-68
2023/07/13 06:56:11;;;;;;;1.73;1.52;;;;;;;20.92;44.55;99979.16;10313023;28;20651;-65
2023/07/13 07:01:13;;;;;;;5.88;2.22;;;;;;;21.75;43.22;99922.00;10314682;28;20245;-68
2023/07/13 07:06:18;;;;;;;2.25;1.95;;;;;;;20.30;44.75;100009.91;10318831;28;20234;-65
2023/07/13 07:11:22;;;;;;;3.55;2.17;;;;;;;21.03;43.56;99985.56;10314705;28;20289;-67
2023/07/13 07:16:24;;;;;;;2.42;2.10;;;;;;;21.86;42.59;99922.91;10315011;28;20226;-68
2023/07/13 07:21:27;;;;;;;2.78;2.15;;;;;;;20.54;42.08;100056.81;10310004;28;20235;-68
2023/07/13 07:26:28;;;;;;;2.42;1.90;;;;;;;20.81;44.45;100007.25;10310590;28;20233;-68
2023/07/13 07:31:50;;;;;;;3.53;2.38;;;;;;;21.04;44.58;99992.66;10311045;28;20313;-68
2023/07/13 07:37:11;;;;;;;2.90;2.10;;;;;;;21.81;42.51;100014.66;10312143;28;20308;-68
2023/07/13 07:42:16;;;;;;;3.95;2.20;;;;;;;21.90;41.43;100000.34;10311894;28;20244;-68
2023/07/13 07:47:18;;;;;;;4.03;1.95;;;;;;;21.34;41.08;100052.16;10312621;28;20235;-68
2023/07/13 07:52:20;;;;;;;2.72;1.60;;;;;;;21.27;42.42;100012.56;10316067;28;20284;-68
2023/07/13 07:57:21;;;;;;;3.05;1.60;;;;;;;21.57;40.67;99995.84;10315268;28;20656;-67
2023/07/13 08:02:26;;;;;;;3.53;1.90;;;;;;;22.00;41.64;99983.31;10306854;28;20245;-67
2023/07/13 08:07:32;;;;;;;2.05;1.60;;;;;;;21.30;41.07;100045.53;10307368;28;20249;-67
2023/07/13 08:12:38;;;;;;;2.80;1.70;;;;;;;20.40;41.76;100069.06;10313503;28;20235;-68
2023/07/13 08:17:42;;;;;;;2.55;1.60;;;;;;;22.26;40.13;99997.19;10306459;28;20772;-68
2023/07/13 08:22:46;;;;;;;2.25;1.50;;;;;;;21.57;41.34;100032.06;10306295;28;20233;-67
2023/07/13 08:27:48;;;;;;;5.10;2.00;;;;;;;22.15;38.81;100035.25;10311983;28;20606;-67
2023/07/13 08:32:50;;;;;;;3.63;1.67;;;;;;;21.81;39.50;100063.69;10305260;28;20241;-67
2023/07/13 08:37:52;;;;;;;3.10;1.40;;;;;;;21.93;39.87;99958.13;10310228;28;20241;-67
2023/07/13 08:42:58;;;;;;;1.63;1.52;;;;;;;22.10;38.96;100046.09;10299268;28;20318;-68
2023/07/13 08:48:14;;;;;;;4.15;2.15;;;;;;;22.72;38.83;99973.06;10306347;28;20225;-67
2023/07/13 08:53:16;;;;;;;1.52;1.30;;;;;;;22.44;38.01;100034.16;10309545;28;20641;-66
2023/07/13 08:58:18;;;;;;;1.90;1.45;;;;;;;21.90;38.42;100048.56;10310293;28;20301;-68
2023/07/13 09:03:25;;;;;;;4.60;1.50;;;;;;;23.23;38.44;99976.16;10309366;28;20307;-68
2023/07/13 09:08:46;;;;;;;3.42;1.55;;;;;;;22.99;38.44;99996.72;10311936;28;20251;-67
2023/07/13 09:13:53;;;;;;;2.50;1.30;;;;;;;23.07;37.12;100023.53;10308568;28;20283;-68
2023/07/13 09:19:01;;;;;;;1.98;1.70;;;;;;;23.78;37.32;99984.88;10312068;28;20284;-67
2023/07/13 09:24:37;;;;;;;2.65;1.25;;;;;;;22.82;36.76;100015.97;10307281;28;20724;-68
2023/07/13 09:29:45;;;;;;;3.92;1.55;;;;;;;23.03;36.16;100042.31;10310489;28;20233;-67
2023/07/13 09:34:54;;;;;;;2.25;1.50;;;;;;;23.22;36.26;100004.53;10310271;28;20238;-67
2023/07/13 09:39:57;;;;;;;2.22;1.30;;;;;;;23.31;36.08;99995.84;10310527;28;20230;-67
2023/07/13 09:45:06;;;;;;;2.20;1.20;;;;;;;24.21;35.13;99956.56;10306120;28;20238;-67
2023/07/13 09:50:16;;;;;;;2.83;1.38;;;;;;;23.15;37.56;100014.06;10310659;28;20238;-67
2023/07/13 09:55:34;;;;;;;1.77;1.20;;;;;;;23.07;36.25;100026.28;10315081;28;20242;-67
2023/07/13 10:00:36;;;;;;;2.78;1.70;;;;;;;23.87;35.63;99974.25;10311640;28;20312;-67
2023/07/13 10:05:41;;;;;;;2.22;1.35;;;;;;;22.88;35.98;100015.75;10317017;28;20308;-67
2023/07/13 10:10:44;;;;;;;4.65;1.45;;;;;;;24.77;35.28;99947.56;10318841;28;20238;-67
2023/07/13 10:15:45;;;;;;;2.28;1.27;;;;;;;23.23;36.38;99964.44;10310218;28;20844;-67
2023/07/13 10:20:47;;;;;;;3.15;1.52;;;;;;;23.74;34.29;99993.88;10318314;28;20250;-67
2023/07/13 10:25:52;;;;;;;3.13;1.30;;;;;;;22.53;34.85;100040.81;10313571;28;20244;-67
2023/07/13 10:30:57;;;;;;;2.38;1.52;;;;;;;23.46;35.33;99998.66;10314555;28;20234;-67
2023/07/13 10:36:30;;;;;;;2.30;1.50;;;;;;;23.89;34.38;99977.53;10316790;28;20226;-67
2023/07/13 10:41:38;;;;;;;2.63;1.52;;;;;;;23.78;34.34;99962.19;10309579;28;20248;-67
2023/07/13 10:46:41;;;;;;;2.10;1.38;;;;;;;23.04;34.43;100008.50;10313208;28;20316;-67
2023/07/13 10:51:43;;;;;;;2.63;1.52;;;;;;;23.97;33.84;99966.09;10317459;28;20272;-67
2023/07/13 10:56:46;;;;;;;1.70;1.23;;;;;;;23.44;33.79;100015.28;10317905;28;20361;-67
2023/07/13 11:06:23;;;;;;;1.30;1.17;;;;;;;22.41;35.30;99910.09;10503974;27;2062836;-67
2023/07/13 11:11:25;;;;;;;1.42;1.23;;;;;;;23.03;35.15;99913.25;10525613;28;20218;-66
2023/07/13 11:16:33;;;;;;;1.73;1.40;;;;;;;21.78;35.77;99973.25;10483738;28;20230;-66
2023/07/13 11:22:07;;;;;;;1.95;1.13;;;;;;;22.59;35.46;99941.63;10465419;28;20231;-67
2023/07/13 11:27:38;;;;;;;3.78;1.50;;;;;;;22.64;35.77;99883.53;10498560;28;20235;-67
2023/07/13 11:32:41;;;;;;;2.08;1.25;;;;;;;23.59;35.09;99929.88;10502955;28;20303;-67
2023/07/13 11:37:46;;;;;;;4.63;1.40;;;;;;;22.68;35.24;99903.78;10506532;28;20233;-67
2023/07/13 11:42:48;;;;;;;3.30;1.35;;;;;;;24.89;34.20;99896.88;10511881;28;20227;-67
2023/07/13 11:47:50;;;;;;;3.20;1.63;;;;;;;24.83;33.12;99936.34;10469473;28;20289;-67
2023/07/13 11:52:55;;;;;;;1.55;1.45;;;;;;;25.04;34.00;99936.28;10506421;28;20234;-69
2023/07/13 11:57:59;;;;;;;4.43;1.73;;;;;;;23.91;31.34;99980.81;10506485;28;20675;-67
2023/07/13 12:03:05;;;;;;;3.45;1.20;;;;;;;23.99;32.27;99990.41;10461428;28;20235;-67
2023/07/13 12:08:13;;;;;;;3.90;1.40;;;;;;;23.10;32.49;99998.47;10508599;28;20986;-68
2023/07/13 12:13:28;;;;;;;2.13;1.20;;;;;;;24.70;32.25;99945.09;10504030;28;20216;-66
2023/07/13 12:18:33;;;;;;;1.90;1.15;;;;;;;24.97;32.47;99922.88;10478779;28;20236;-67
2023/07/13 12:23:35;;;;;;;1.75;1.25;;;;;;;24.50;32.39;99954.94;10436794;28;20764;-67
2023/07/13 12:28:44;;;;;;;2.47;1.45;;;;;;;24.55;31.78;99971.34;10436590;28;20236;-66
2023/07/13 12:33:46;;;;;;;2.95;1.35;;;;;;;24.98;32.21;99932.72;10438633;28;20242;-66
2023/07/13 12:38:48;;;;;;;2.58;1.45;;;;;;;24.19;32.96;99948.63;10436736;28;20259;-68
2023/07/13 12:43:50;;;;;;;3.53;1.60;;;;;;;24.54;31.91;99938.78;10445677;28;20884;-69
2023/07/13 12:48:54;;;;;;;5.90;1.95;;;;;;;23.01;32.91;99945.41;10473905;28;20257;-66
2023/07/13 12:54:18;;;;;;;3.05;1.30;;;;;;;24.48;31.61;99920.75;10450141;28;20729;-66
2023/07/13 12:59:22;;;;;;;1.80;1.55;;;;;;;24.58;31.70;99942.63;10485632;28;20223;-67
2023/07/13 13:04:24;;;;;;;5.65;1.40;;;;;;;24.27;32.06;99955.47;10481551;28;20322;-66
2023/07/13 13:09:26;;;;;;;1.13;1.00;;;;;;;23.59;32.08;99962.66;10481125;28;20265;-66
2023/07/13 13:14:28;;;;;;;1.50;1.40;;;;;;;22.96;32.66;99943.50;10482093;28;20231;-66
2023/07/13 13:19:30;;;;;;;2.67;1.30;;;;;;;25.69;31.61;99873.25;10475798;28;20235;-68
2023/07/13 13:24:32;;;;;;;5.07;1.35;;;;;;;23.88;32.39;99932.16;10482968;28;20231;-67
2023/07/13 13:29:38;;;;;;;4.55;1.17;;;;;;;22.90;33.34;99947.28;10475751;28;20733;-67
2023/07/13 13:34:41;;;;;;;1.88;1.52;;;;;;;23.63;33.16;99894.69;10487401;28;20319;-67
2023/07/13 13:39:44;;;;;;;2.65;1.33;;;;;;;25.55;31.18;99895.00;10481827;28;20320;-66
2023/07/13 13:45:03;;;;;;;2.20;1.20;;;;;;;25.77;31.45;99896.53;10483492;28;20238;-67
2023/07/13 13:50:22;;;;;;;2.92;1.30;;;;;;;25.19;31.02;99971.00;10481105;28;20231;-69
2023/07/13 13:55:24;;;;;;;3.50;1.50;;;;;;;25.02;31.44;99925.59;10479509;28;20231;-67
2023/07/13 14:00:26;;;;;;;1.95;1.40;;;;;;;26.03;30.35;99898.00;10487281;28;20223;-67
2023/07/13 14:05:27;;;;;;;3.30;1.30;;;;;;;25.56;31.10;99926.78;10478353;28;20632;-67
2023/07/13 14:10:30;;;;;;;3.20;1.35;;;;;;;25.05;31.94;99932.41;10470720;28;20242;-69
2023/07/13 14:15:32;;;;;;;1.67;0.93;;;;;;;24.65;31.36;99986.94;10477593;28;20235;-67
2023/07/13 14:20:34;;;;;;;3.35;1.60;;;;;;;25.70;31.03;99937.13;10474939;28;20238;-68
2023/07/13 14:25:36;;;;;;;2.20;1.20;;;;;;;25.64;31.67;99923.44;10480543;28;20235;-67
2023/07/13 14:30:38;;;;;;;1.70;0.95;;;;;;;25.05;31.77;99987.16;10467720;28;20725;-66
2023/07/13 14:35:40;;;;;;;1.63;1.20;;;;;;;25.37;32.17;99929.34;10483640;28;20254;-67
2023/07/13 14:40:41;;;;;;;2.40;1.20;;;;;;;24.25;31.86;99985.81;10485045;28;20227;-66
2023/07/13 14:45:50;;;;;;;2.38;1.20;;;;;;;24.72;32.32;99904.59;10483053;28;20329;-66
2023/07/13 14:50:56;;;;;;;1.73;1.17;;;;;;;24.74;32.02;99903.22;10457886;28;20461;-68
2023/07/13 14:55:57;;;;;;;1.30;1.20;;;;;;;23.89;32.89;99903.75;10435870;28;20326;-70
2023/07/13 15:00:59;;;;;;;1.33;1.23;;;;;;;26.17;30.98;99909.13;10443592;28;20748;-68
2023/07/13 15:06:02;;;;;;;2.28;1.38;;;;;;;25.15;31.58;99901.47;10433483;28;20236;-68
2023/07/13 15:11:04;;;;;;;2.65;1.55;;;;;;;23.75;31.99;99977.22;10435034;28;20286;-75
2023/07/13 15:16:24;;;;;;;3.08;1.20;;;;;;;26.45;31.14;99889.44;10461053;28;20310;-67
2023/07/13 15:21:31;;;;;;;3.42;1.45;;;;;;;23.34;32.17;99965.28;10480206;28;20231;-69
2023/07/13 15:26:33;;;;;;;1.20;1.02;;;;;;;25.55;31.28;99900.47;10476091;28;20293;-66
2023/07/13 15:31:36;;;;;;;2.28;1.40;;;;;;;26.14;30.38;99920.66;10477278;28;20232;-67
2023/07/13 15:36:38;;;;;;;1.52;1.05;;;;;;;23.83;31.80;99926.69;10478321;28;20235;-67
2023/07/13 15:41:41;;;;;;;1.85;1.40;;;;;;;26.02;31.10;99885.38;10484722;28;20677;-67
2023/07/13 15:46:44;;;;;;;2.78;0.95;;;;;;;24.63;31.93;99945.34;10477013;28;20248;-67
2023/07/13 15:51:47;;;;;;;3.55;1.40;;;;;;;24.80;31.10;99903.22;10488398;28;20239;-66
2023/07/13 15:56:55;;;;;;;3.53;1.35;;;;;;;24.69;31.45;99955.22;10486126;28;20274;-66
2023/07/13 16:01:57;;;;;;;2.58;1.25;;;;;;;26.05;30.76;99888.66;10493797;28;20318;-68
2023/07/13 16:06:58;;;;;;;2.17;1.20;;;;;;;26.21;30.82;99901.97;10480251;28;20239;-69
2023/07/13 16:12:00;;;;;;;1.15;1.05;;;;;;;23.43;33.01;99939.94;10488237;28;20351;-69
2023/07/13 16:17:02;;;;;;;1.20;1.10;;;;;;;26.45;30.82;99894.91;10476446;28;20270;-68
2023/07/13 16:22:05;;;;;;;2.15;1.52;;;;;;;24.30;32.32;99944.00;10477517;28;20729;-70
2023/07/13 16:27:09;;;;;;;2.05;1.20;;;;;;;24.89;32.04;99879.66;10480204;28;20230;-68
2023/07/13 16:32:15;;;;;;;2.60;1.27;;;;;;;24.82;32.11;99863.53;10487204;28;20230;-69
2023/07/13 16:37:25;;;;;;;3.40;1.30;;;;;;;26.20;30.10;99937.91;10486258;28;20649;-69
2023/07/13 16:42:27;;;;;;;3.92;1.60;;;;;;;24.80;31.97;99936.88;10488289;28;20238;-68
2023/07/13 16:47:29;;;;;;;2.20;1.30;;;;;;;24.96;32.04;99901.25;10476306;28;20275;-67
2023/07/13 16:52:31;;;;;;;2.92;1.40;;;;;;;26.00;30.85;99953.38;10484113;28;20239;-68
2023/07/13 16:57:33;;;;;;;4.72;1.65;;;;;;;26.85;30.68;99914.84;10489763;28;20253;-69
2023/07/13 17:02:38;;;;;;;2.03;1.35;;;;;;;25.69;31.05;99960.94;10475063;28;20326;-69
2023/07/13 17:07:42;;;;;;;3.55;1.38;;;;;;;26.21;30.63;99965.03;10452300;28;20238;-69
2023/07/13 17:12:44;;;;;;;1.40;1.10;;;;;;;25.44;31.11;99970.13;10438415;28;20232;-69
2023/07/13 17:17:49;;;;;;;1.90;1.10;;;;;;;26.42;30.77;99915.53;10472813;28;20304;-68
2023/07/13 17:22:52;;;;;;;3.28;1.25;;;;;;;26.34;31.02;99932.59;10448706;28;20231;-69
2023/07/13 17:27:54;;;;;;;3.17;1.55;;;;;;;26.12;31.69;99955.78;10431076;28;20243;-69
2023/07/13 17:32:55;;;;;;;3.47;1.10;;;;;;;25.90;31.24;99941.69;10470453;28;20284;-69
2023/07/13 17:37:59;;;;;;;1.98;1.45;;;;;;;24.48;32.07;99920.75;10429403;28;20255;-69
2023/07/13 17:43:01;;;;;;;4.82;2.38;;;;;;;24.59;31.62;99965.31;10468965;28;20242;-69
2023/07/13 17:48:05;;;;;;;6.95;3.88;;;;;;;24.08;32.54;99936.03;10452197;28;20318;-69
2023/07/13 17:53:10;;;;;;;2.78;1.27;;;;;;;24.70;31.73;99929.50;10436046;28;20239;-64
2023/07/13 17:58:12;;;;;;;2.10;1.30;;;;;;;25.54;31.48;99918.03;10437168;28;20298;-65
2023/07/13 18:03:25;;;;;;;1.42;1.13;;;;;;;24.12;32.86;99975.38;10434845;28;20781;-65
2023/07/13 18:08:29;;;;;;;2.50;1.50;;;;;;;24.90;32.54;99909.50;10440209;28;20713;-65
2023/07/13 18:13:38;;;;;;;1.55;1.25;;;;;;;24.86;32.48;99945.88;10477321;28;20242;-65
2023/07/13 18:18:41;;;;;;;4.82;1.77;;;;;;;24.33;32.85;99954.41;10472338;28;20595;-65
2023/07/13 18:23:44;;;;;;;3.90;1.33;;;;;;;22.83;33.90;99958.41;10475196;28;20337;-65
2023/07/13 18:28:47;;;;;;;4.30;1.25;;;;;;;23.78;33.38;99935.69;10471265;28;20320;-65
2023/07/13 18:33:53;;;;;;;2.72;1.40;;;;;;;24.72;32.43;99904.59;10469867;28;20244;-65
2023/07/13 18:38:55;;;;;;;3.28;1.00;;;;;;;24.26;33.10;99945.63;10477064;28;20246;-65
2023/07/13 18:43:57;;;;;;;2.47;1.50;;;;;;;25.04;32.65;99953.50;10474222;28;20235;-65
2023/07/13 18:49:00;;;;;;;10.32;1.40;;;;;;;25.23;32.31;99931.84;10474501;28;20229;-65
2023/07/13 18:54:02;;;;;;;2.85;1.23;;;;;;;25.18;32.39;99952.94;10480136;28;20269;-65
2023/07/13 18:59:05;;;;;;;2.50;1.10;;;;;;;24.45;32.90;99954.13;10473087;28;20339;-65
2023/07/13 19:04:35;;;;;;;1.83;1.15;;;;;;;24.97;32.65;99931.09;10469743;28;20277;-65
2023/07/13 19:09:40;;;;;;;2.15;1.10;;;;;;;25.00;33.13;99940.66;10431323;28;20730;-65
2023/07/13 19:14:42;;;;;;;2.95;1.25;;;;;;;22.84;35.08;99957.34;10438029;28;20239;-66
2023/07/13 19:19:44;;;;;;;2.15;1.38;;;;;;;24.80;33.66;99914.16;10476008;28;20235;-66
2023/07/13 19:24:47;;;;;;;3.42;1.30;;;;;;;24.54;34.00;99974.34;10474654;28;20296;-65
2023/07/13 19:29:49;;;;;;;3.38;1.58;;;;;;;24.45;33.67;99974.09;10479644;28;20257;-65
2023/07/13 19:34:52;;;;;;;2.45;1.58;;;;;;;23.77;34.03;99983.25;10477984;28;20308;-66
2023/07/13 19:39:54;;;;;;;3.53;1.48;;;;;;;23.57;34.89;99956.66;10484850;28;20257;-65
2023/07/13 19:44:58;;;;;;;2.50;1.35;;;;;;;24.40;34.00;99982.28;10486372;28;20238;-65
2023/07/13 19:50:00;;;;;;;3.47;1.55;;;;;;;24.88;34.60;99962.84;10483121;28;20230;-65
2023/07/13 19:55:10;;;;;;;4.22;1.50;;;;;;;24.44;34.64;100009.91;10484844;28;20238;-65
2023/07/13 20:00:16;;;;;;;1.75;1.23;;;;;;;23.92;35.52;100022.63;10481345;28;20297;-65
2023/07/13 20:05:21;;;;;;;3.85;1.50;;;;;;;24.42;35.63;100001.16;10475542;28;20646;-65
2023/07/13 20:10:28;;;;;;;1.98;1.38;;;;;;;24.15;35.49;100024.06;10482039;28;20288;-65
2023/07/13 20:15:31;;;;;;;3.17;1.58;;;;;;;24.44;35.09;99996.22;10479621;28;20251;-65
2023/07/13 20:20:37;;;;;;;3.53;1.90;;;;;;;24.08;35.74;100023.50;10489699;28;20230;-65
2023/07/13 20:25:39;;;;;;;1.42;1.25;;;;;;;24.07;35.99;100019.09;10480166;28;20326;-66
2023/07/13 20:30:46;;;;;;;1.52;1.23;;;;;;;24.37;34.93;99996.50;10482724;28;20277;-67
2023/07/13 20:35:48;;;;;;;3.53;1.60;;;;;;;23.27;36.75;100041.97;10477548;28;20253;-69
2023/07/13 20:40:51;;;;;;;2.22;1.40;;;;;;;23.29;36.68;100003.47;10480207;28;20245;-65
2023/07/13 20:46:01;;;;;;;3.42;1.70;;;;;;;23.76;35.16;100022.56;10482563;28;20905;-64
2023/07/13 20:51:04;;;;;;;3.92;1.85;;;;;;;23.76;34.69;100032.69;10479193;28;20234;-66
2023/07/13 20:56:13;;;;;;;3.90;1.40;;;;;;;22.43;37.14;100062.50;10475058;28;20747;-66
2023/07/13 21:01:27;;;;;;;3.97;1.88;;;;;;;22.86;37.27;100009.72;10478043;28;20227;-66
2023/07/13 21:06:29;;;;;;;4.60;1.65;;;;;;;22.47;38.09;99999.03;10478824;28;20698;-67
2023/07/13 21:11:31;;;;;;;4.22;1.52;;;;;;;22.39;37.61;99994.06;10475447;28;20238;-69
2023/07/13 21:16:33;;;;;;;5.80;1.65;;;;;;;21.78;38.46;100005.91;10477902;28;20327;-66
2023/07/13 21:21:35;;;;;;;3.65;2.05;;;;;;;21.34;39.26;100010.47;10481961;28;20326;-65
2023/07/13 21:26:36;;;;;;;3.58;1.70;;;;;;;21.15;37.92;100004.50;10479021;28;20260;-66
2023/07/13 21:31:38;;;;;;;2.97;1.60;;;;;;;21.89;37.30;100022.38;10478544;28;20227;-65
2023/07/13 21:36:40;;;;;;;1.80;1.65;;;;;;;21.61;38.53;100021.50;10481118;28;20334;-66
2023/07/13 21:41:43;;;;;;;4.60;2.35;;;;;;;22.07;38.78;100019.34;10476824;28;21086;-66
2023/07/13 21:46:44;;;;;;;7.70;2.03;;;;;;;20.84;40.13;100034.78;10474342;28;20674;-66
2023/07/13 21:51:46;;;;;;;3.95;1.70;;;;;;;20.61;39.85;100021.31;10479314;28;20235;-69
2023/07/13 21:56:48;;;;;;;2.55;1.30;;;;;;;20.58;38.36;100052.53;10476823;28;20725;-63
2023/07/13 22:01:50;;;;;;;3.63;2.15;;;;;;;20.89;38.24;100042.22;10478228;28;20790;-66
2023/07/13 22:06:55;;;;;;;3.47;1.60;;;;;;;20.72;38.78;100031.31;10398950;28;20782;-66
2023/07/13 22:11:57;;;;;;;2.75;1.83;;;;;;;21.59;39.08;99985.53;10394083;28;20686;-65
2023/07/13 22:16:58;;;;;;;4.53;1.70;;;;;;;21.97;40.43;100021.97;10392049;28;20801;-64
2023/07/13 22:22:00;;;;;;;5.93;2.15;;;;;;;21.33;42.58;99985.16;10360318;28;20242;-65
2023/07/13 22:27:02;;;;;;;4.55;1.80;;;;;;;22.33;39.55;100012.25;10354408;28;20229;-66
2023/07/13 22:32:04;;;;;;;6.47;1.70;;;;;;;21.51;40.44;100043.13;10354821;28;20275;-65
2023/07/13 22:37:08;;;;;;;2.97;1.55;;;;;;;21.91;39.46;100047.47;10341792;28;20237;-65
2023/07/13 22:42:10;;;;;;;3.15;1.67;;;;;;;22.46;38.71;100043.72;10386456;28;20359;-67
2023/07/13 22:47:16;;;;;;;4.82;1.52;;;;;;;21.81;39.12;100071.84;10391117;28;20236;-66
2023/07/13 22:52:17;;;;;;;4.75;1.63;;;;;;;21.96;39.21;100069.34;10359548;28;20370;-66
2023/07/13 22:57:20;;;;;;;3.25;1.50;;;;;;;21.69;39.37;100053.72;10348650;28;20279;-67
2023/07/13 23:02:21;;;;;;;6.88;1.88;;;;;;;21.75;40.84;100005.63;10352541;28;20236;-66
2023/07/13 23:07:25;;;;;;;6.20;2.17;;;;;;;21.72;40.05;100033.34;10428159;28;20568;-67
2023/07/13 23:12:30;;;;;;;3.35;1.90;;;;;;;22.29;39.89;100023.94;10470510;28;20357;-66
2023/07/13 23:17:32;;;;;;;4.47;2.00;;;;;;;20.28;42.70;100064.50;10475442;28;20226;-66
2023/07/13 23:22:33;;;;;;;3.50;1.75;;;;;;;21.41;41.81;100017.44;10470840;28;20743;-66
2023/07/13 23:27:35;;;;;;;3.78;1.70;;;;;;;21.66;40.59;100040.63;10473430;28;20223;-66
2023/07/13 23:32:37;;;;;;;2.53;1.70;;;;;;;21.55;41.30;100041.56;10473928;28;20243;-66
2023/07/13 23:37:40;;;;;;;3.88;1.85;;;;;;;21.05;41.99;100049.53;10480873;28;20223;-66
2023/07/13 23:42:42;;;;;;;3.90;1.80;;;;;;;21.33;41.92;100020.56;10480019;28;20238;-69